Time;durP1;ratioP1;P1;durP2;ratioP2;P2;SDS_P1;SDS_P2;PMS_P1;PMS_P2;Temp;Humidity;BMP_temperature;BMP_pressure;BME280_temperature;BME280_humidity;BME280_pressure;Samples;Min_cycle;Max_cycle;Signal;HPM_P1;HPM_P2
2023/05/10 00:00:43;;;;;;;44.78;25.67;;;12.60;99.90;;;;;;5023324;28;20033;-72
2023/05/10 00:03:08;;;;;;;39.38;23.58;;;12.60;99.90;;;;;;5032137;28;20347;-72
2023/05/10 00:05:34;;;;;;;42.85;25.50;;;12.50;99.90;;;;;;5032168;28;20025;-72
2023/05/10 00:07:59;;;;;;;42.42;23.48;;;12.40;99.90;;;;;;5031564;28;20490;-72
2023/05/10 00:10:25;;;;;;;41.58;21.63;;;12.40;99.90;;;;;;5031179;28;20026;-73
2023/05/10 00:12:52;;;;;;;41.20;22.83;;;12.40;99.90;;;;;;5031934;28;20381;-73
2023/05/10 00:15:18;;;;;;;39.03;22.85;;;12.30;99.90;;;;;;5031608;28;20418;-72
2023/05/10 00:17:43;;;;;;;43.92;24.42;;;12.30;99.90;;;;;;5014363;28;20172;-72
2023/05/10 00:20:10;;;;;;;45.63;26.30;;;12.30;99.90;;;;;;5026091;28;20382;-73
2023/05/10 00:22:35;;;;;;;47.13;27.17;;;12.30;99.90;;;;;;5031775;28;20401;-73
2023/05/10 00:25:01;;;;;;;49.78;26.77;;;12.30;99.90;;;;;;5031865;28;20033;-72
2023/05/10 00:27:26;;;;;;;46.65;25.80;;;12.30;99.90;;;;;;5022388;28;20450;-73
2023/05/10 00:29:52;;;;;;;44.90;25.35;;;12.40;99.90;;;;;;5012501;28;20034;-73
2023/05/10 00:32:17;;;;;;;50.05;26.23;;;12.40;99.90;;;;;;5012027;28;20036;-72
2023/05/10 00:34:43;;;;;;;45.05;24.73;;;12.50;99.90;;;;;;5012209;28;20092;-73
2023/05/10 00:37:09;;;;;;;44.25;25.42;;;12.50;99.90;;;;;;5016805;28;20456;-72
2023/05/10 00:39:34;;;;;;;44.30;25.73;;;12.60;99.90;;;;;;5031568;28;20416;-72
2023/05/10 00:42:01;;;;;;;44.05;26.25;;;12.60;99.90;;;;;;5031278;28;20120;-73
2023/05/10 00:44:27;;;;;;;42.50;24.02;;;12.70;99.90;;;;;;5022192;28;20041;-72
2023/05/10 00:46:53;;;;;;;43.33;24.88;;;12.70;99.90;;;;;;5014155;28;20030;-72
2023/05/10 00:49:19;;;;;;;47.28;25.73;;;12.70;99.90;;;;;;5031559;28;20034;-72
2023/05/10 00:51:45;;;;;;;41.55;22.33;;;12.70;99.90;;;;;;5031838;28;20064;-72
2023/05/10 00:54:13;;;;;;;43.60;23.92;;;12.80;99.90;;;;;;5031710;28;20151;-73
2023/05/10 00:56:39;;;;;;;45.47;25.67;;;12.70;99.90;;;;;;5031281;28;20046;-73
2023/05/10 00:59:05;;;;;;;40.63;24.35;;;12.70;99.90;;;;;;5031374;28;20061;-72
2023/05/10 01:01:30;;;;;;;38.00;23.88;;;12.80;99.90;;;;;;5031518;28;20084;-72
2023/05/10 01:03:56;;;;;;;42.08;22.65;;;12.80;99.90;;;;;;5031730;28;20076;-73
2023/05/10 01:06:22;;;;;;;43.08;25.02;;;12.90;99.90;;;;;;5031282;28;20447;-72
2023/05/10 01:08:48;;;;;;;44.53;26.88;;;12.90;99.90;;;;;;5031248;28;20064;-72
2023/05/10 01:11:14;;;;;;;42.28;25.75;;;13.00;99.90;;;;;;5031392;28;20060;-72
2023/05/10 01:13:42;;;;;;;44.10;25.58;;;13.00;99.90;;;;;;5031149;28;20087;-72
2023/05/10 01:16:07;;;;;;;39.85;23.85;;;13.00;99.90;;;;;;5031588;28;20029;-71
2023/05/10 01:18:37;;;;;;;40.63;21.55;;;13.10;99.90;;;;;;5031589;28;20380;-72
2023/05/10 01:21:11;;;;;;;34.42;18.88;;;13.10;99.90;;;;;;5030688;28;20029;-73
2023/05/10 01:23:36;;;;;;;33.58;16.90;;;13.20;99.90;;;;;;5032413;28;20112;-72
2023/05/10 01:26:22;;;;;;;37.17;20.08;;;13.20;99.90;;;;;;5035935;28;20117;-73
2023/05/10 01:29:13;;;;;;;33.13;17.73;;;13.20;99.90;;;;;;5030642;28;20026;-73
2023/05/10 01:32:00;;;;;;;33.38;17.73;;;13.30;99.90;;;;;;5036441;28;20057;-73
2023/05/10 01:34:35;;;;;;;35.58;19.70;;;13.30;99.90;;;;;;5044451;28;20029;-73
2023/05/10 01:37:13;;;;;;;32.67;18.67;;;13.30;99.90;;;;;;5042656;28;20486;-72
2023/05/10 01:39:53;;;;;;;37.92;20.33;;;13.30;99.90;;;;;;5046931;28;20037;-72
2023/05/10 01:42:22;;;;;;;34.22;19.25;;;13.40;99.90;;;;;;5048884;28;20033;-73
2023/05/10 01:44:58;;;;;;;37.10;21.30;;;13.40;99.90;;;;;;5043865;28;20036;-73
2023/05/10 01:47:38;;;;;;;37.70;21.42;;;13.40;99.90;;;;;;5038554;28;20033;-73
2023/05/10 01:50:09;;;;;;;36.65;19.98;;;13.40;99.90;;;;;;5029861;28;20021;-73
2023/05/10 01:52:43;;;;;;;35.47;18.97;;;13.50;99.90;;;;;;5046298;28;20108;-73
2023/05/10 01:55:13;;;;;;;36.53;18.63;;;13.50;99.90;;;;;;5046753;28;20734;-73
2023/05/10 01:57:42;;;;;;;32.85;19.30;;;13.40;99.90;;;;;;5037629;28;20028;-73
2023/05/10 02:00:10;;;;;;;38.00;19.83;;;13.40;99.90;;;;;;5049834;28;20032;-73
2023/05/10 02:02:38;;;;;;;30.58;13.57;;;13.40;99.90;;;;;;5042161;28;20489;-72
2023/05/10 02:05:06;;;;;;;25.40;12.25;;;13.40;99.90;;;;;;5041577;28;20187;-73
2023/05/10 02:07:35;;;;;;;28.73;13.48;;;13.40;99.90;;;;;;5033973;28;20061;-72
2023/05/10 02:10:02;;;;;;;31.52;14.20;;;13.40;99.90;;;;;;5050189;28;20330;-73
2023/05/10 02:12:29;;;;;;;35.95;14.32;;;13.40;99.90;;;;;;5041089;28;20500;-73
2023/05/10 02:14:56;;;;;;;36.85;12.50;;;13.40;99.90;;;;;;5042812;28;20065;-73
2023/05/10 02:17:24;;;;;;;40.22;14.15;;;13.30;99.90;;;;;;5048039;28;20073;-73
2023/05/10 02:19:51;;;;;;;53.50;11.55;;;13.30;99.90;;;;;;5037119;28;20505;-73
2023/05/10 02:22:18;;;;;;;42.80;11.93;;;13.30;99.90;;;;;;5047402;28;20030;-73
2023/05/10 02:24:46;;;;;;;47.35;11.73;;;13.20;99.90;;;;;;5043064;28;20033;-74
2023/05/10 02:27:13;;;;;;;40.67;11.50;;;13.20;99.90;;;;;;5040497;28;20112;-73
2023/05/10 02:29:39;;;;;;;46.25;10.75;;;13.10;99.90;;;;;;5050067;28;20063;-73
2023/05/10 02:32:06;;;;;;;48.42;11.13;;;13.10;99.90;;;;;;5036606;28;20021;-73
2023/05/10 02:34:32;;;;;;;52.63;12.32;;;13.00;99.90;;;;;;5045901;28;20101;-73
2023/05/10 02:36:58;;;;;;;36.47;11.15;;;13.00;99.90;;;;;;5044214;28;20041;-73
2023/05/10 02:39:28;;;;;;;28.60;10.07;;;13.00;99.90;;;;;;5038629;28;20025;-73
2023/05/10 02:41:55;;;;;;;28.75;10.50;;;13.00;99.90;;;;;;5049865;28;20095;-74
2023/05/10 02:44:23;;;;;;;29.38;11.23;;;13.00;99.90;;;;;;5039378;28;20020;-73
2023/05/10 02:46:49;;;;;;;30.05;9.68;;;13.00;99.90;;;;;;5043161;28;20029;-73
2023/05/10 02:49:15;;;;;;;29.13;10.70;;;12.90;99.90;;;;;;5046598;28;20381;-73
2023/05/10 02:51:47;;;;;;;27.65;10.57;;;12.90;99.90;;;;;;5036737;28;20196;-73
2023/05/10 02:54:18;;;;;;;26.60;9.90;;;12.90;99.90;;;;;;5048070;28;20018;-73
2023/05/10 02:56:50;;;;;;;36.92;10.95;;;12.90;99.90;;;;;;5031639;28;20060;-73
2023/05/10 02:59:16;;;;;;;29.83;10.45;;;12.80;99.90;;;;;;5045481;28;20373;-73
2023/05/10 03:01:41;;;;;;;30.27;12.45;;;12.80;99.90;;;;;;5035948;28;20037;-73
2023/05/10 03:04:07;;;;;;;27.23;11.15;;;12.80;99.90;;;;;;5048842;28;20080;-73
2023/05/10 03:06:33;;;;;;;26.95;11.43;;;12.80;99.90;;;;;;5033016;28;20032;-73
2023/05/10 03:08:59;;;;;;;29.13;12.20;;;12.80;99.90;;;;;;5044131;28;20040;-73
2023/05/10 03:11:46;;;;;;;27.20;10.60;;;12.70;99.90;;;;;;5037749;28;20029;-73
2023/05/10 03:14:34;;;;;;;24.30;9.85;;;12.70;99.90;;;;;;5022412;28;20021;-72
2023/05/10 03:17:10;;;;;;;26.88;11.02;;;12.80;99.90;;;;;;5052962;28;20067;-73
2023/05/10 03:19:51;;;;;;;26.30;11.98;;;12.80;99.90;;;;;;5036509;28;20021;-73
2023/05/10 03:22:26;;;;;;;25.75;11.68;;;12.80;99.90;;;;;;5021085;28;20078;-73
2023/05/10 03:24:56;;;;;;;26.92;11.68;;;12.80;99.90;;;;;;5052165;28;20479;-73
2023/05/10 03:27:23;;;;;;;21.70;10.43;;;12.80;99.90;;;;;;5052354;28;20503;-72
2023/05/10 03:29:51;;;;;;;25.08;11.10;;;12.80;99.90;;;;;;5035821;28;20381;-73
2023/05/10 03:32:16;;;;;;;23.55;10.80;;;12.70;99.90;;;;;;5047060;28;20017;-73
2023/05/10 03:34:45;;;;;;;25.05;10.95;;;12.70;99.90;;;;;;5041404;28;20035;-72
2023/05/10 03:37:10;;;;;;;27.85;11.05;;;12.70;99.90;;;;;;5039228;28;20054;-74
2023/05/10 03:39:36;;;;;;;26.23;11.57;;;12.80;99.90;;;;;;5047779;28;20055;-72
2023/05/10 03:42:01;;;;;;;22.48;10.48;;;12.70;99.90;;;;;;5034470;28;20029;-73
2023/05/10 03:44:27;;;;;;;23.02;9.40;;;12.70;99.90;;;;;;5045196;28;20100;-73
2023/05/10 03:46:53;;;;;;;25.05;10.48;;;12.70;99.90;;;;;;5040036;28;20039;-73
2023/05/10 03:49:18;;;;;;;24.38;10.60;;;12.70;99.90;;;;;;5046258;28;20496;-73
2023/05/10 03:51:44;;;;;;;22.85;10.55;;;12.80;99.90;;;;;;5035369;28;20092;-73
2023/05/10 03:54:09;;;;;;;23.15;11.40;;;12.80;99.90;;;;;;5047334;28;20033;-72
2023/05/10 03:56:35;;;;;;;28.25;11.20;;;12.80;99.90;;;;;;5040373;28;20056;-73
2023/05/10 03:59:01;;;;;;;24.15;10.82;;;12.80;99.90;;;;;;5040634;28;20385;-73
2023/05/10 04:01:26;;;;;;;21.52;10.32;;;12.80;99.90;;;;;;5047102;28;20366;-73
2023/05/10 04:03:52;;;;;;;21.27;10.95;;;12.80;99.90;;;;;;5035922;28;20106;-74
2023/05/10 04:06:17;;;;;;;21.00;10.25;;;12.80;99.90;;;;;;5051472;28;20028;-73
2023/05/10 04:08:43;;;;;;;24.00;10.95;;;12.80;99.90;;;;;;5043313;28;20033;-74
2023/05/10 04:11:10;;;;;;;21.83;11.07;;;12.90;99.90;;;;;;5041044;28;21237;-73
2023/05/10 04:13:36;;;;;;;23.42;10.10;;;12.90;99.90;;;;;;5048536;28;20051;-72
2023/05/10 04:16:02;;;;;;;25.70;12.07;;;12.90;99.90;;;;;;5019620;28;20442;-73
2023/05/10 04:18:28;;;;;;;27.30;12.60;;;12.80;99.90;;;;;;5045279;28;20017;-73
2023/05/10 04:20:53;;;;;;;29.60;13.88;;;12.80;99.90;;;;;;5042590;28;20385;-72
2023/05/10 04:23:19;;;;;;;26.92;13.15;;;12.90;99.90;;;;;;5038100;28;20485;-73
2023/05/10 04:25:44;;;;;;;31.13;13.80;;;12.90;99.90;;;;;;5048391;28;20488;-73
2023/05/10 04:28:10;;;;;;;28.15;14.13;;;12.90;99.90;;;;;;5037073;28;20394;-72
2023/05/10 04:30:35;;;;;;;26.65;12.98;;;12.80;99.90;;;;;;5044380;28;20359;-74
2023/05/10 04:33:04;;;;;;;28.33;13.80;;;12.90;99.90;;;;;;5043808;28;20025;-72
2023/05/10 04:35:30;;;;;;;25.88;12.98;;;12.80;99.90;;;;;;5036401;28;20021;-73
2023/05/10 04:37:55;;;;;;;29.33;13.25;;;12.90;99.90;;;;;;5048606;28;20155;-72
2023/05/10 04:40:21;;;;;;;29.42;14.13;;;12.90;99.90;;;;;;5038244;28;20053;-73
2023/05/10 04:42:46;;;;;;;29.52;14.38;;;12.90;99.90;;;;;;5042050;28;20037;-73
2023/05/10 04:45:14;;;;;;;24.42;12.48;;;12.90;99.90;;;;;;5044970;28;20029;-73
2023/05/10 04:47:40;;;;;;;27.40;13.13;;;12.90;99.90;;;;;;5034970;28;20064;-73
2023/05/10 04:50:07;;;;;;;27.58;13.05;;;12.90;99.90;;;;;;5047260;28;20022;-73
2023/05/10 04:52:32;;;;;;;23.02;11.93;;;13.00;99.90;;;;;;5039613;28;20112;-73
2023/05/10 04:54:58;;;;;;;24.98;11.88;;;13.00;99.90;;;;;;5041689;28;20105;-74
2023/05/10 04:57:23;;;;;;;23.52;11.77;;;13.10;99.90;;;;;;5050626;28;20025;-73
2023/05/10 04:59:49;;;;;;;23.35;11.50;;;13.00;99.90;;;;;;5039224;28;20523;-73
2023/05/10 05:02:14;;;;;;;22.77;11.07;;;13.10;99.90;;;;;;5050416;28;20431;-72
2023/05/10 05:04:40;;;;;;;24.65;11.52;;;13.10;99.90;;;;;;5044008;28;20528;-74
2023/05/10 05:07:05;;;;;;;26.27;12.93;;;13.20;99.90;;;;;;5055012;28;20491;-74
2023/05/10 05:09:31;;;;;;;26.63;12.27;;;13.20;99.90;;;;;;5039799;28;20469;-73
2023/05/10 05:11:57;;;;;;;25.50;11.57;;;13.20;99.90;;;;;;5051540;28;20153;-73
2023/05/10 05:14:24;;;;;;;23.13;10.80;;;13.30;99.90;;;;;;5041641;28;20108;-74
2023/05/10 05:16:53;;;;;;;23.67;11.48;;;13.30;99.90;;;;;;5054891;28;20017;-74
2023/05/10 05:19:19;;;;;;;27.67;11.98;;;13.40;99.90;;;;;;5040732;28;20023;-73
2023/05/10 05:21:45;;;;;;;23.20;10.77;;;13.40;99.90;;;;;;5050680;28;20041;-73
2023/05/10 05:24:12;;;;;;;23.15;10.25;;;13.50;99.90;;;;;;5040548;28;20029;-73
2023/05/10 05:26:38;;;;;;;19.95;10.18;;;13.60;99.90;;;;;;5046451;28;20033;-74
2023/05/10 05:29:03;;;;;;;22.20;9.60;;;13.60;99.90;;;;;;5046861;28;20047;-72
2023/05/10 05:31:30;;;;;;;20.35;9.68;;;13.60;99.90;;;;;;5037968;28;20503;-74
2023/05/10 05:33:56;;;;;;;21.58;10.07;;;13.60;99.90;;;;;;5051071;28;20024;-73
2023/05/10 05:36:22;;;;;;;21.33;9.98;;;13.70;99.90;;;;;;5041179;28;20397;-73
2023/05/10 05:38:47;;;;;;;22.02;10.75;;;13.70;99.90;;;;;;5045106;28;20026;-73
2023/05/10 05:41:13;;;;;;;20.17;9.77;;;13.70;99.90;;;;;;5047914;28;20028;-73
2023/05/10 05:43:39;;;;;;;20.27;10.35;;;13.70;99.90;;;;;;5037948;28;20028;-73
2023/05/10 05:46:04;;;;;;;20.67;9.52;;;13.70;99.90;;;;;;5050606;28;20025;-73
2023/05/10 05:48:31;;;;;;;22.70;10.25;;;13.70;99.90;;;;;;5041316;28;20535;-74
2023/05/10 05:50:56;;;;;;;24.45;10.35;;;13.70;99.90;;;;;;5042903;28;20524;-73
2023/05/10 05:53:23;;;;;;;23.15;11.55;;;13.70;99.90;;;;;;5049269;28;20037;-74
2023/05/10 05:55:56;;;;;;;23.63;10.75;;;13.70;99.90;;;;;;5038043;28;20025;-73
2023/05/10 05:58:22;;;;;;;24.73;11.38;;;13.70;99.90;;;;;;5048423;28;20105;-74
2023/05/10 06:00:48;;;;;;;23.15;10.60;;;13.80;99.90;;;;;;5043764;28;20036;-74
2023/05/10 06:03:13;;;;;;;21.88;10.80;;;13.90;99.90;;;;;;5040753;28;20037;-74
2023/05/10 06:05:39;;;;;;;22.50;10.15;;;14.10;99.90;;;;;;5050221;28;20109;-73
2023/05/10 06:08:05;;;;;;;18.80;8.30;;;14.30;99.90;;;;;;5037334;28;20040;-74
2023/05/10 06:10:30;;;;;;;20.98;9.38;;;14.60;99.90;;;;;;5046725;28;20429;-73
2023/05/10 06:12:56;;;;;;;16.20;8.02;;;14.90;99.90;;;;;;5035121;28;20030;-74
2023/05/10 06:15:22;;;;;;;18.27;8.45;;;15.20;99.90;;;;;;5035824;28;20415;-73
2023/05/10 06:17:49;;;;;;;17.63;8.30;;;15.50;99.90;;;;;;5036543;28;20032;-73
2023/05/10 06:20:15;;;;;;;17.05;8.00;;;15.80;99.90;;;;;;5048494;28;20104;-71
2023/05/10 06:22:41;;;;;;;16.10;8.05;;;15.90;99.90;;;;;;5040003;28;20048;-72
2023/05/10 06:25:07;;;;;;;17.17;7.90;;;16.00;99.90;;;;;;5052447;28;20021;-72
2023/05/10 06:27:33;;;;;;;15.88;8.02;;;16.20;99.90;;;;;;5053830;28;20720;-72
2023/05/10 06:29:58;;;;;;;16.45;8.45;;;16.40;99.90;;;;;;5036779;28;20036;-72
2023/05/10 06:32:24;;;;;;;19.40;8.30;;;16.70;99.90;;;;;;5047050;28;20024;-73
2023/05/10 06:34:50;;;;;;;17.85;9.55;;;16.80;99.90;;;;;;5044225;28;20036;-72
2023/05/10 06:37:15;;;;;;;20.48;9.05;;;16.80;99.90;;;;;;5039676;28;20405;-76
2023/05/10 06:39:41;;;;;;;16.00;7.55;;;17.00;99.90;;;;;;5050248;28;20017;-73
2023/05/10 06:42:06;;;;;;;14.80;7.68;;;17.10;99.90;;;;;;5037715;28;20036;-72
2023/05/10 06:44:32;;;;;;;18.95;9.23;;;17.20;99.90;;;;;;5045547;28;20026;-72
2023/05/10 06:46:58;;;;;;;20.00;10.55;;;17.20;99.90;;;;;;5044291;28;20025;-74
2023/05/10 06:49:23;;;;;;;21.05;10.45;;;17.20;99.90;;;;;;5038646;28;20080;-74
2023/05/10 06:51:49;;;;;;;15.38;7.50;;;17.20;99.90;;;;;;5048934;28;20033;-74
2023/05/10 06:54:14;;;;;;;11.05;5.75;;;17.40;99.90;;;;;;5034487;28;20057;-74
2023/05/10 06:56:40;;;;;;;11.80;5.80;;;17.40;99.90;;;;;;5042432;28;20091;-73
2023/05/10 06:59:06;;;;;;;10.82;5.90;;;17.30;99.90;;;;;;5040859;28;20071;-73
2023/05/10 07:01:32;;;;;;;9.00;5.20;;;17.30;99.90;;;;;;5048700;28;20044;-73
2023/05/10 07:03:57;;;;;;;11.68;5.53;;;17.20;99.90;;;;;;5036560;28;20023;-73
2023/05/10 07:06:23;;;;;;;13.85;7.10;;;17.10;99.90;;;;;;5046214;28;20033;-74
2023/05/10 07:08:48;;;;;;;19.02;8.40;;;17.10;99.90;;;;;;5043207;28;20046;-74
2023/05/10 07:11:14;;;;;;;13.35;6.97;;;17.10;99.90;;;;;;5039838;28;20083;-73
2023/05/10 07:13:43;;;;;;;15.48;7.88;;;17.10;99.90;;;;;;5049204;28;20036;-74
2023/05/10 07:16:09;;;;;;;11.38;5.95;;;17.10;99.90;;;;;;5034139;28;20887;-73
2023/05/10 07:18:35;;;;;;;12.55;6.20;;;17.10;99.90;;;;;;5031826;28;20083;-74
2023/05/10 07:21:01;;;;;;;12.35;6.65;;;17.10;99.90;;;;;;5031427;28;20029;-74
2023/05/10 07:23:27;;;;;;;14.77;7.50;;;17.00;99.90;;;;;;5032123;28;20394;-74
2023/05/10 07:25:53;;;;;;;14.68;7.03;;;17.10;99.90;;;;;;5033104;28;20377;-74
2023/05/10 07:28:19;;;;;;;10.82;6.40;;;17.10;99.90;;;;;;5031434;28;20474;-74
2023/05/10 07:30:45;;;;;;;13.13;6.57;;;17.10;99.90;;;;;;5029663;28;20029;-74
2023/05/10 07:33:12;;;;;;;14.48;6.63;;;17.10;99.90;;;;;;5032658;28;20048;-75
2023/05/10 07:35:37;;;;;;;12.77;6.78;;;17.10;99.90;;;;;;5031823;28;20409;-74
2023/05/10 07:38:03;;;;;;;12.57;6.28;;;17.20;99.90;;;;;;5031754;28;20041;-74
2023/05/10 07:40:29;;;;;;;10.32;5.25;;;17.30;99.90;;;;;;5031001;28;20034;-73
2023/05/10 07:42:54;;;;;;;13.32;6.43;;;17.30;99.90;;;;;;5031446;28;20556;-75
2023/05/10 07:45:20;;;;;;;17.50;6.97;;;17.40;99.90;;;;;;5031335;28;20112;-74
2023/05/10 07:47:46;;;;;;;18.38;9.55;;;17.50;99.90;;;;;;5032524;28;20030;-75
2023/05/10 07:50:11;;;;;;;13.40;7.05;;;17.50;99.90;;;;;;5032337;28;20029;-74
2023/05/10 07:52:37;;;;;;;15.20;7.68;;;17.50;99.90;;;;;;5032401;28;20091;-74
2023/05/10 07:55:02;;;;;;;8.85;5.32;;;17.50;99.90;;;;;;5032369;28;20030;-75
2023/05/10 07:57:28;;;;;;;19.65;10.68;;;17.40;99.90;;;;;;5032158;28;20087;-74
2023/05/10 07:59:54;;;;;;;20.02;9.60;;;17.40;99.90;;;;;;5027742;28;20037;-74
2023/05/10 08:02:19;;;;;;;12.38;6.20;;;17.40;99.90;;;;;;5031748;28;20037;-74
2023/05/10 08:04:45;;;;;;;13.40;6.35;;;17.40;99.90;;;;;;5033059;28;20056;-74
2023/05/10 08:07:11;;;;;;;14.02;6.80;;;17.50;99.90;;;;;;5031522;28;20029;-74
2023/05/10 08:09:36;;;;;;;13.95;6.53;;;17.70;99.90;;;;;;5029842;28;20120;-72
2023/05/10 08:12:02;;;;;;;12.80;6.20;;;17.90;99.90;;;;;;5030778;28;20029;-73
2023/05/10 08:14:29;;;;;;;10.05;5.38;;;18.10;99.90;;;;;;5029809;28;20030;-75
2023/05/10 08:16:55;;;;;;;12.13;4.90;;;18.20;99.90;;;;;;5029841;28;20052;-75
2023/05/10 08:19:21;;;;;;;12.07;6.00;;;18.50;99.90;;;;;;5029908;28;20087;-74
2023/05/10 08:21:47;;;;;;;12.90;6.47;;;18.80;99.90;;;;;;5029709;28;20430;-75
2023/05/10 08:24:13;;;;;;;13.18;5.55;;;19.10;99.90;;;;;;5029256;28;20056;-74
2023/05/10 08:26:38;;;;;;;11.32;5.32;;;19.10;99.90;;;;;;5025214;28;20021;-74
2023/05/10 08:29:04;;;;;;;10.43;4.50;;;19.10;99.90;;;;;;5026168;28;20025;-75
2023/05/10 08:31:30;;;;;;;9.50;4.60;;;19.10;99.90;;;;;;5033677;28;20044;-75
2023/05/10 08:33:55;;;;;;;9.95;4.70;;;19.00;99.90;;;;;;5032433;28;20849;-74
2023/05/10 08:36:23;;;;;;;11.38;4.97;;;19.00;99.90;;;;;;5035875;28;20513;-75
2023/05/10 08:38:52;;;;;;;13.13;6.20;;;19.00;99.90;;;;;;5035431;28;20082;-74
2023/05/10 08:41:23;;;;;;;15.30;7.00;;;19.50;99.90;;;;;;5036022;28;20477;-75
2023/05/10 08:43:50;;;;;;;14.23;5.40;;;20.10;99.90;;;;;;5035126;28;20044;-74
2023/05/10 08:46:18;;;;;;;11.77;5.10;;;20.70;99.90;;;;;;5035412;28;20033;-74
2023/05/10 08:48:48;;;;;;;12.30;5.03;;;20.90;99.90;;;;;;5034501;28;20076;-75
2023/05/10 08:51:16;;;;;;;15.55;5.88;;;21.10;99.90;;;;;;5032238;28;20032;-75
2023/05/10 08:53:43;;;;;;;14.55;6.13;;;21.10;99.90;;;;;;5032185;28;20053;-75
2023/05/10 08:56:09;;;;;;;13.25;5.00;;;21.20;99.90;;;;;;5034704;28;20076;-73
2023/05/10 08:58:35;;;;;;;13.32;5.20;;;21.20;99.90;;;;;;5033054;28;20065;-75
2023/05/10 09:01:01;;;;;;;14.70;6.40;;;21.20;99.90;;;;;;5025476;28;20415;-74
2023/05/10 09:03:26;;;;;;;11.88;4.95;;;21.10;99.90;;;;;;5034052;28;20045;-75
2023/05/10 09:05:52;;;;;;;15.07;5.82;;;21.00;99.90;;;;;;5033929;28;20052;-75
2023/05/10 09:08:18;;;;;;;11.90;5.47;;;20.90;99.90;;;;;;5034248;28;20087;-74
2023/05/10 09:10:47;;;;;;;13.07;5.60;;;20.80;99.90;;;;;;5035322;28;20050;-75
2023/05/10 09:13:15;;;;;;;11.50;4.95;;;21.10;99.90;;;;;;5052357;28;20036;-75
2023/05/10 09:15:40;;;;;;;10.50;4.60;;;21.50;99.90;;;;;;5055640;28;20017;-74
2023/05/10 09:18:06;;;;;;;11.82;5.25;;;21.80;99.90;;;;;;5024090;28;20026;-75
2023/05/10 09:20:32;;;;;;;9.10;4.05;;;21.80;99.90;;;;;;5035252;28;20043;-74
2023/05/10 09:22:57;;;;;;;10.57;4.88;;;21.70;99.90;;;;;;5034684;28;20175;-74
2023/05/10 09:25:23;;;;;;;9.80;4.47;;;21.50;99.90;;;;;;5042572;28;20033;-74
2023/05/10 09:27:49;;;;;;;8.85;4.45;;;21.40;99.90;;;;;;5034594;28;20033;-74
2023/05/10 09:30:22;;;;;;;10.00;4.97;;;21.60;99.90;;;;;;5034929;28;20034;-75
2023/05/10 09:32:48;;;;;;;7.20;3.50;;;22.20;99.90;;;;;;5034834;28;20041;-74
2023/05/10 09:35:16;;;;;;;6.57;3.78;;;23.20;99.90;;;;;;5033456;28;20048;-74
2023/05/10 09:37:44;;;;;;;10.38;4.18;;;23.90;99.90;;;;;;5034480;28;20059;-73
2023/05/10 09:40:36;;;;;;;7.80;3.28;;;24.10;99.90;;;;;;5033879;28;20036;-74
2023/05/10 09:43:05;;;;;;;6.28;2.90;;;24.60;99.90;;;;;;5033669;28;20049;-73
2023/05/10 09:45:35;;;;;;;6.00;2.60;;;24.90;99.90;;;;;;5034690;28;20045;-75
2023/05/10 09:48:03;;;;;;;8.35;3.65;;;25.00;99.60;;;;;;5033247;28;20029;-75
2023/05/10 09:50:29;;;;;;;4.68;2.70;;;24.80;99.70;;;;;;5033180;28;20013;-75
2023/05/10 09:53:00;;;;;;;7.35;3.45;;;24.60;99.80;;;;;;5033183;28;20367;-74
2023/05/10 09:55:41;;;;;;;8.40;3.63;;;24.10;99.90;;;;;;5037605;28;20025;-74
2023/05/10 09:58:12;;;;;;;9.82;3.80;;;23.70;99.90;;;;;;5031697;28;20030;-77
2023/05/10 10:00:42;;;;;;;11.55;4.53;;;23.30;99.90;;;;;;5033312;28;20053;-74
2023/05/10 10:03:15;;;;;;;12.32;5.78;;;23.00;99.90;;;;;;5033232;28;20053;-73
2023/05/10 10:05:43;;;;;;;11.73;5.20;;;22.90;99.90;;;;;;5033522;28;20030;-73
2023/05/10 10:08:09;;;;;;;13.32;5.80;;;22.70;99.90;;;;;;5033624;28;20036;-74
2023/05/10 10:10:35;;;;;;;9.70;4.47;;;22.60;99.90;;;;;;5046726;28;20033;-74
2023/05/10 10:13:02;;;;;;;9.07;4.15;;;22.80;99.90;;;;;;5053608;28;20025;-74
2023/05/10 10:15:27;;;;;;;12.02;5.28;;;22.90;99.90;;;;;;5053898;28;20082;-74
2023/05/10 10:17:54;;;;;;;10.15;4.80;;;22.90;99.90;;;;;;5035601;28;20033;-74
2023/05/10 10:20:21;;;;;;;17.63;8.07;;;22.80;99.90;;;;;;5026982;28;20036;-74
2023/05/10 10:22:47;;;;;;;12.88;5.78;;;22.50;99.90;;;;;;5033769;28;20029;-73
2023/05/10 10:25:15;;;;;;;16.10;7.00;;;22.30;99.90;;;;;;5038379;28;20212;-73
2023/05/10 10:27:53;;;;;;;17.70;7.30;;;22.00;99.90;;;;;;5035757;28;20489;-73
2023/05/10 10:30:22;;;;;;;20.17;9.15;;;21.70;99.90;;;;;;5039497;28;20104;-73
2023/05/10 10:33:10;;;;;;;19.65;8.45;;;21.60;99.90;;;;;;5024272;28;20028;-74
2023/05/10 10:35:36;;;;;;;20.00;9.20;;;21.40;99.90;;;;;;5043411;28;20112;-74
2023/05/10 10:38:02;;;;;;;20.67;9.35;;;21.20;99.90;;;;;;5038452;28;20128;-73
2023/05/10 10:40:30;;;;;;;20.60;10.13;;;21.10;99.90;;;;;;5036385;28;20524;-73
2023/05/10 10:42:56;;;;;;;25.77;9.98;;;20.90;99.90;;;;;;5047655;28;20400;-74
2023/05/10 10:45:23;;;;;;;23.25;9.48;;;20.90;99.90;;;;;;5044706;28;20029;-73
2023/05/10 10:47:53;;;;;;;20.27;9.73;;;20.90;99.90;;;;;;5045371;28;20025;-73
2023/05/10 10:50:18;;;;;;;24.98;10.77;;;20.90;99.90;;;;;;5032114;28;20037;-74
2023/05/10 10:52:45;;;;;;;22.80;9.55;;;21.00;99.90;;;;;;5035227;28;20401;-74
2023/05/10 10:55:18;;;;;;;19.60;8.80;;;20.90;99.90;;;;;;5046256;28;20377;-74
2023/05/10 10:57:51;;;;;;;18.98;8.25;;;21.00;99.90;;;;;;5043033;28;20048;-74
2023/05/10 11:00:37;;;;;;;20.60;9.40;;;21.10;99.90;;;;;;5047093;28;20099;-73
2023/05/10 11:03:18;;;;;;;13.38;6.35;;;21.20;99.90;;;;;;5037818;28;20064;-73
2023/05/10 11:05:52;;;;;;;12.60;6.25;;;21.30;99.90;;;;;;5036694;28;20065;-72
2023/05/10 11:08:30;;;;;;;12.70;5.50;;;21.40;99.90;;;;;;5045315;28;20037;-73
2023/05/10 11:10:58;;;;;;;14.15;5.95;;;21.60;99.90;;;;;;5022765;28;20100;-73
2023/05/10 11:13:44;;;;;;;14.57;6.75;;;22.10;99.90;;;;;;5044310;28;20049;-74
2023/05/10 11:16:20;;;;;;;14.00;6.55;;;22.60;99.90;;;;;;5033305;28;20037;-73
2023/05/10 11:19:02;;;;;;;14.73;5.82;;;23.10;99.90;;;;;;5049282;28;20017;-73
2023/05/10 11:21:29;;;;;;;9.55;5.55;;;23.40;99.90;;;;;;5041548;28;20052;-74
2023/05/10 11:23:59;;;;;;;12.65;5.75;;;23.60;99.90;;;;;;5036745;28;21737;-74
2023/05/10 11:26:29;;;;;;;11.90;5.32;;;23.60;99.90;;;;;;5049024;28;20036;-74
2023/05/10 11:28:55;;;;;;;11.27;6.30;;;23.70;99.90;;;;;;5037241;28;20039;-73
2023/05/10 11:31:22;;;;;;;10.93;5.93;;;24.00;99.90;;;;;;5025635;28;20030;-74
2023/05/10 11:33:50;;;;;;;13.27;6.72;;;24.20;99.90;;;;;;5029122;28;20057;-74
2023/05/10 11:36:17;;;;;;;13.57;6.90;;;23.90;99.90;;;;;;5039166;28;20043;-74
2023/05/10 11:38:44;;;;;;;15.18;7.22;;;23.60;99.90;;;;;;5048993;28;20139;-74
2023/05/10 11:41:12;;;;;;;12.50;6.88;;;23.40;99.90;;;;;;5039199;28;20061;-75
2023/05/10 11:43:39;;;;;;;11.32;6.60;;;23.30;99.90;;;;;;5040158;28;20095;-75
2023/05/10 11:46:06;;;;;;;15.13;7.45;;;23.20;99.90;;;;;;5030676;28;20103;-75
2023/05/10 11:48:32;;;;;;;13.02;6.75;;;23.00;99.90;;;;;;5040079;28;20037;-74
2023/05/10 11:50:58;;;;;;;16.77;7.65;;;22.90;99.90;;;;;;5051704;28;20017;-74
2023/05/10 11:53:26;;;;;;;14.27;7.65;;;22.70;99.90;;;;;;5040687;28;20028;-74
2023/05/10 11:55:51;;;;;;;14.57;7.15;;;22.50;99.90;;;;;;5028580;28;20438;-74
2023/05/10 11:58:18;;;;;;;12.10;6.72;;;22.50;99.90;;;;;;5043904;28;20033;-74
2023/05/10 12:00:45;;;;;;;13.82;6.82;;;22.60;99.90;;;;;;5048520;28;20036;-74
2023/05/10 12:03:11;;;;;;;15.38;7.70;;;22.60;99.90;;;;;;5039868;28;20029;-74
2023/05/10 12:05:37;;;;;;;14.43;7.70;;;22.60;99.90;;;;;;5046078;28;20039;-75
2023/05/10 12:08:16;;;;;;;15.90;7.47;;;22.40;99.90;;;;;;5038141;28;20029;-74
2023/05/10 12:10:41;;;;;;;14.60;8.20;;;22.30;99.90;;;;;;5048590;28;20511;-74
2023/05/10 12:13:14;;;;;;;17.13;8.35;;;22.30;99.90;;;;;;5038238;28;20049;-74
2023/05/10 12:15:39;;;;;;;13.93;7.57;;;21.90;99.90;;;;;;5047659;28;20029;-74
2023/05/10 12:18:05;;;;;;;14.35;7.50;;;21.80;99.90;;;;;;5037257;28;20044;-74
2023/05/10 12:20:31;;;;;;;13.63;6.38;;;21.80;99.90;;;;;;5039851;28;20025;-74
2023/05/10 12:22:58;;;;;;;15.15;7.43;;;21.80;99.90;;;;;;5047785;28;20097;-74
2023/05/10 12:25:30;;;;;;;13.00;7.38;;;21.90;99.90;;;;;;5040792;28;20102;-74
2023/05/10 12:27:57;;;;;;;14.90;6.05;;;21.80;99.90;;;;;;5038771;28;20029;-74
2023/05/10 12:30:25;;;;;;;13.02;6.78;;;21.90;99.90;;;;;;5047300;28;20071;-75
2023/05/10 12:32:51;;;;;;;13.35;6.82;;;22.10;99.90;;;;;;5035499;28;20159;-74
2023/05/10 12:35:20;;;;;;;17.02;7.80;;;22.20;99.90;;;;;;5043931;28;20045;-74